Weather at Vancouver International Airport

Public forecast

Using degrees Celsius for public forecast. Weather courtesy of forecast.io.

Current aviation weather report (METAR) for Vancouver International Airport

Retrieved 2021/11/27 14:00 UTC (48 minutes ago):

CYVR 271400Z 10009KT 14SM -RA SCT021 BKN049 OVC060 07/06 A3008 RMK SC4SC3SC1 SLP187

Aviation forecast (TAF) for Vancouver International Airport

Retrieved 2021/11/27 15:41 UTC (0 seconds ago):

TAF CYVR 271438Z 2715/2818 08008KT P6SM -RA SCT020 OVC050 TEMPO 2715/2716 5SM -RA BR BKN020 OVC080 FM271600 09010G20KT P6SM -RA OVC025 TEMPO 2716/2802 4SM -RA BR SCT006 OVC012 PROB30 2718/2802 2SM RA BR OVC008 FM280200 12012G22KT 5SM -RA BR SCT006 OVC012 TEMPO 2802/2808 2SM RA BR BKN006 OVC012 FM280800 15015G25KT P6SM SCT015 OVC030 TEMPO 2808/2814 3SM -SHRA BR BKN015 FM281400 15012G22KT P6SM -RA SCT002 OVC015 TEMPO 2814/2818 2SM -RA BR BKN002 BECMG 2816/2818 17008KT RMK NXT FCST BY 271800Z